This is the latest recevied weather packets stored in our database for station/object K5FEP. If no packets are shown the sender has not sent any weather packets the latest 10 day(s).
| Time | Temp. | Humidity | Pressure | Rain* | Wind** | Luminosity | Snow |
|---|---|---|---|---|---|---|---|
| 1788360202 | 33.33° C | 48% | 1018.3 hPa | 0 mm | - | 663 W/m² | - |
| 1788359896 | 33.89° C | 47% | 1018.3 hPa | 0 mm | - | 647 W/m² | - |
| 1788359591 | 33.33° C | 48% | 1018.4 hPa | 0 mm | - | 627 W/m² | - |
| 1788359287 | 33.33° C | 49% | 1018.4 hPa | 0 mm | - | 617 W/m² | - |
| 1788358982 | 33.33° C | 52% | 1018.2 hPa | 0 mm | - | 598 W/m² | - |
| 1788358683 | 33.33° C | 50% | 1018.3 hPa | 0 mm | - | 577 W/m² | - |
| 1788358379 | 33.33° C | 53% | 1018.2 hPa | 0 mm | - | 563 W/m² | - |
| 1788358078 | 32.78° C | 52% | 1018.1 hPa | 0 mm | - | 546 W/m² | - |
| 1788357773 | 32.78° C | 54% | 1018.2 hPa | 0 mm | - | 529 W/m² | - |
| 1788357472 | 31.67° C | 58% | 1018.2 hPa | 0 mm | - | 509 W/m² | - |
| 1788357168 | 31.67° C | 57% | 1018.2 hPa | 0 mm | - | 494 W/m² | - |
| 1788356868 | 31.67° C | 57% | 1018.3 hPa | 0 mm | - | 476 W/m² | - |
| 1788356563 | 31.11° C | 58% | 1018.2 hPa | 0 mm | - | 457 W/m² | - |
| 1788356259 | 30.56° C | 62% | 1018.1 hPa | 0 mm | - | 437 W/m² | - |
| 1788355958 | 30° C | 64% | 1018.1 hPa | 0 mm | - | 419 W/m² | - |
| 1788355653 | 30° C | 64% | 1018.2 hPa | 0 mm | - | 399 W/m² | - |
| 1788355349 | 30° C | 64% | 1018.3 hPa | 0 mm | - | 380 W/m² | - |
| 1788355044 | 30° C | 63% | 1018.3 hPa | 0 mm | - | 360 W/m² | - |
| 1788354740 | 29.44° C | 66% | 1018.2 hPa | 0 mm | - | 339 W/m² | - |
| 1788354440 | 29.44° C | 64% | 1018.1 hPa | 0 mm | - | 320 W/m² | - |
| 1788354136 | 28.89° C | 66% | 1018.1 hPa | 0 mm | - | 303 W/m² | - |
| 1788353831 | 28.89° C | 67% | 1018.1 hPa | 0 mm | - | 284 W/m² | - |
| 1788353527 | 27.78° C | 71% | 1018.1 hPa | 0 mm | - | 266 W/m² | - |
| 1788353229 | 26.67° C | 75% | 1017.9 hPa | 0 mm | - | 242 W/m² | - |
| 1788352923 | 26.11° C | 79% | 1018 hPa | 0 mm | - | 224 W/m² | - |
* Rain latest hour (hover to see other rain measurements)
** Current wind speed in m/s (hover to see current wind gust speed)